createdAt,value
2017-10-06T00:00:33.454Z,961.02
2017-10-06T00:01:14.029Z,961.01
2017-10-06T00:01:54.610Z,960.99
2017-10-06T00:02:35.193Z,961.04
2017-10-06T00:03:15.764Z,961.03
2017-10-06T00:03:56.341Z,961
2017-10-06T00:04:36.916Z,961.06
2017-10-06T00:05:17.496Z,961.06
2017-10-06T00:05:58.078Z,961.06
2017-10-06T00:06:38.650Z,961.05
2017-10-06T00:07:19.231Z,961.05
2017-10-06T00:07:59.809Z,961.05
2017-10-06T00:08:55.274Z,961.07
2017-10-06T00:09:35.850Z,961.05
2017-10-06T00:10:16.430Z,961.11
2017-10-06T00:10:57.010Z,961.05
2017-10-06T00:11:37.589Z,961.03
2017-10-06T00:12:18.166Z,961.08
2017-10-06T00:12:58.742Z,961.06
2017-10-06T00:13:39.325Z,961.05
2017-10-06T00:14:19.905Z,961.09
2017-10-06T00:15:00.487Z,961.11
2017-10-06T00:15:41.068Z,961.1
2017-10-06T00:16:21.648Z,961.1
2017-10-06T00:17:02.259Z,961.15
2017-10-06T00:17:42.822Z,961.12
2017-10-06T00:18:23.403Z,961.14
2017-10-06T00:19:03.972Z,961.15
2017-10-06T00:19:44.549Z,961.14
2017-10-06T00:20:25.127Z,961.13
2017-10-06T00:21:05.708Z,961.14
2017-10-06T00:21:46.288Z,961.13
2017-10-06T00:22:26.860Z,961.15
2017-10-06T00:23:07.443Z,961.11
2017-10-06T00:23:48.022Z,961.16
2017-10-06T00:24:28.595Z,961.14
2017-10-06T00:25:09.178Z,961.11
2017-10-06T00:25:49.764Z,961.15
2017-10-06T00:26:30.342Z,961.17
2017-10-06T00:27:10.900Z,961.16
2017-10-06T00:27:51.478Z,961.19
2017-10-06T00:28:32.057Z,961.16
2017-10-06T00:29:12.638Z,961.11
2017-10-06T00:29:53.205Z,961.09
2017-10-06T00:30:33.781Z,961.1
2017-10-06T00:31:14.358Z,961.09
2017-10-06T00:31:54.940Z,961.1
2017-10-06T00:32:35.522Z,961.11
2017-10-06T00:33:16.107Z,961.11
2017-10-06T00:33:56.684Z,961.14
2017-10-06T00:34:37.267Z,961.14
2017-10-06T00:35:17.839Z,961.15
2017-10-06T00:35:58.420Z,961.2
2017-10-06T00:36:38.996Z,961.17
2017-10-06T00:37:19.573Z,961.23
2017-10-06T00:38:00.148Z,961.22
2017-10-06T00:38:40.725Z,961.23
2017-10-06T00:39:21.295Z,961.24
2017-10-06T00:40:01.869Z,961.25
2017-10-06T00:40:42.454Z,961.28
2017-10-06T00:41:23.022Z,961.28
2017-10-06T00:42:03.605Z,961.32
2017-10-06T00:42:44.179Z,961.32
2017-10-06T00:43:24.755Z,961.32
2017-10-06T00:44:05.335Z,961.32
2017-10-06T00:44:45.915Z,961.3
2017-10-06T00:45:26.494Z,961.31
2017-10-06T00:46:07.067Z,961.29
2017-10-06T00:46:47.645Z,961.31
2017-10-06T00:47:28.235Z,961.32
2017-10-06T00:48:08.797Z,961.29
2017-10-06T00:48:49.376Z,961.29
2017-10-06T00:49:29.952Z,961.32
2017-10-06T00:50:10.529Z,961.31
2017-10-06T00:50:51.112Z,961.28
2017-10-06T00:51:31.697Z,961.33
2017-10-06T00:52:12.279Z,961.3
2017-10-06T00:52:52.852Z,961.3
2017-10-06T00:53:33.423Z,961.28
2017-10-06T00:54:13.995Z,961.3
2017-10-06T00:56:26.847Z,961.32
2017-10-06T00:57:07.419Z,961.34
2017-10-06T00:57:47.994Z,961.29
2017-10-06T00:58:28.569Z,961.27
2017-10-06T00:59:09.139Z,961.27
2017-10-06T00:59:49.725Z,961.29
2017-10-06T01:00:30.297Z,961.27
2017-10-06T01:01:10.861Z,961.3
2017-10-06T01:01:51.445Z,961.28
2017-10-06T01:02:32.032Z,961.23
2017-10-06T01:03:12.612Z,961.28
2017-10-06T01:03:53.186Z,961.26
2017-10-06T01:04:33.763Z,961.28
2017-10-06T01:05:14.340Z,961.28
2017-10-06T01:05:54.918Z,961.25
2017-10-06T01:06:35.489Z,961.3
2017-10-06T01:07:16.071Z,961.28
2017-10-06T01:07:56.638Z,961.31
2017-10-06T01:08:37.216Z,961.3
2017-10-06T01:09:17.797Z,961.3
2017-10-06T01:09:58.386Z,961.31
2017-10-06T01:10:38.959Z,961.32
2017-10-06T01:11:19.532Z,961.34
2017-10-06T01:12:00.115Z,961.34
2017-10-06T01:12:40.681Z,961.35
2017-10-06T01:13:21.263Z,961.38
2017-10-06T01:14:01.837Z,961.39
2017-10-06T01:14:42.412Z,961.34
2017-10-06T01:15:22.989Z,961.4
2017-10-06T01:16:03.568Z,961.37
2017-10-06T01:16:44.145Z,961.38
2017-10-06T01:17:24.723Z,961.35
2017-10-06T01:18:05.335Z,961.33
2017-10-06T01:18:45.920Z,961.31
2017-10-06T01:19:26.500Z,961.29
2017-10-06T01:20:07.064Z,961.31
2017-10-06T01:20:47.647Z,961.32
2017-10-06T01:21:28.226Z,961.3
2017-10-06T01:22:15.546Z,961.33
2017-10-06T01:22:56.125Z,961.31
2017-10-06T01:23:36.700Z,961.35
2017-10-06T01:24:17.284Z,961.34
2017-10-06T01:24:57.866Z,961.33
2017-10-06T01:25:38.449Z,961.35
2017-10-06T01:26:19.032Z,961.33
2017-10-06T01:26:59.618Z,961.33
2017-10-06T01:27:40.175Z,961.41
2017-10-06T01:28:20.752Z,961.39
2017-10-06T01:29:01.326Z,961.35
2017-10-06T01:29:41.905Z,961.3
2017-10-06T01:30:22.481Z,961.35
2017-10-06T01:31:03.055Z,961.34
2017-10-06T01:31:43.629Z,961.3
2017-10-06T01:32:24.212Z,961.3
2017-10-06T01:33:04.786Z,961.27
2017-10-06T01:33:45.371Z,961.28
2017-10-06T01:34:25.945Z,961.28
2017-10-06T01:35:06.516Z,961.31
2017-10-06T01:35:47.915Z,961.31
2017-10-06T01:36:28.838Z,961.32
2017-10-06T01:37:09.421Z,961.32
2017-10-06T01:37:50.001Z,961.31
2017-10-06T01:38:30.586Z,961.38
2017-10-06T01:39:11.151Z,961.37
2017-10-06T01:39:51.731Z,961.36
2017-10-06T01:40:32.315Z,961.37
2017-10-06T01:41:12.900Z,961.36
2017-10-06T01:41:53.481Z,961.35
2017-10-06T01:42:34.054Z,961.3
2017-10-06T01:43:14.636Z,961.32
2017-10-06T01:43:56.236Z,961.3
2017-10-06T01:44:36.813Z,961.29
2017-10-06T01:45:17.396Z,961.29
2017-10-06T01:45:57.977Z,961.27
2017-10-06T01:46:38.558Z,961.26
2017-10-06T01:47:19.128Z,961.24
2017-10-06T01:47:59.710Z,961.27
2017-10-06T01:48:40.286Z,961.25
2017-10-06T01:49:20.859Z,961.23
2017-10-06T01:50:01.435Z,961.23
2017-10-06T01:50:42.015Z,961.2
2017-10-06T01:51:22.594Z,961.27
2017-10-06T01:52:03.170Z,961.24
2017-10-06T01:52:43.745Z,961.25
2017-10-06T01:53:24.325Z,961.25
2017-10-06T01:54:04.920Z,961.27
2017-10-06T01:54:45.499Z,961.24
2017-10-06T01:55:26.074Z,961.23
2017-10-06T01:56:06.656Z,961.24
2017-10-06T01:56:47.236Z,961.28
2017-10-06T01:57:27.819Z,961.27
2017-10-06T01:58:08.401Z,961.25
2017-10-06T01:58:48.983Z,961.21
2017-10-06T01:59:29.560Z,961.23
2017-10-06T02:00:10.155Z,961.26
2017-10-06T02:00:50.744Z,961.29
2017-10-06T02:01:31.321Z,961.27
2017-10-06T02:02:11.894Z,961.28
2017-10-06T02:02:52.475Z,961.27
2017-10-06T02:03:33.061Z,961.28
2017-10-06T02:04:13.633Z,961.24
2017-10-06T02:04:54.213Z,961.21
2017-10-06T02:05:34.798Z,961.22
2017-10-06T02:06:15.375Z,961.24
2017-10-06T02:06:55.952Z,961.23
2017-10-06T02:07:36.531Z,961.27
2017-10-06T02:08:17.111Z,961.25
2017-10-06T02:08:57.693Z,961.25
2017-10-06T02:09:38.273Z,961.22
2017-10-06T02:10:18.850Z,961.23
2017-10-06T02:10:59.427Z,961.23
2017-10-06T02:11:40.015Z,961.24
2017-10-06T02:12:20.593Z,961.16
2017-10-06T02:13:01.168Z,961.18
2017-10-06T02:13:41.745Z,961.14
2017-10-06T02:14:22.317Z,961.16
2017-10-06T02:15:02.893Z,961.13
2017-10-06T02:15:43.468Z,961.13
2017-10-06T02:16:24.047Z,961.11
2017-10-06T02:17:04.624Z,961.11
2017-10-06T02:17:45.206Z,961.09
2017-10-06T02:18:25.783Z,961.09
2017-10-06T02:19:06.363Z,961.09
2017-10-06T02:19:46.947Z,961.09
2017-10-06T02:20:27.533Z,961.06
2017-10-06T02:21:08.105Z,961.07
2017-10-06T02:21:48.690Z,961.06
2017-10-06T02:22:29.266Z,961.08
2017-10-06T02:23:09.836Z,961
2017-10-06T02:23:50.403Z,961.07
2017-10-06T02:24:30.984Z,961.07
2017-10-06T02:25:11.564Z,961.06
2017-10-06T02:25:52.150Z,961.01
2017-10-06T02:26:32.721Z,961.06
2017-10-06T02:27:13.294Z,961.09
2017-10-06T02:27:53.871Z,961.08
2017-10-06T02:28:34.448Z,961.07
2017-10-06T02:29:15.022Z,961.06
2017-10-06T02:29:55.592Z,961.06
2017-10-06T02:30:36.166Z,961.04
2017-10-06T02:31:16.748Z,961.07
2017-10-06T02:31:57.326Z,961.03
2017-10-06T02:32:37.896Z,961.02
2017-10-06T02:33:18.480Z,961.03
2017-10-06T02:33:59.059Z,961.01
2017-10-06T02:34:39.641Z,960.99
2017-10-06T02:35:20.842Z,960.99
2017-10-06T02:36:01.418Z,961.02
2017-10-06T02:36:41.985Z,960.99
2017-10-06T02:37:22.556Z,960.94
2017-10-06T02:38:03.134Z,960.93
2017-10-06T02:38:43.726Z,960.97
2017-10-06T02:39:24.315Z,960.93
2017-10-06T02:40:04.892Z,960.92
2017-10-06T02:40:45.464Z,960.95
2017-10-06T02:41:26.043Z,960.93
2017-10-06T02:42:06.626Z,960.94
2017-10-06T02:42:47.205Z,960.91
2017-10-06T02:43:27.775Z,960.9
2017-10-06T02:44:08.346Z,960.92
2017-10-06T02:44:48.921Z,960.93
2017-10-06T02:45:29.501Z,960.95
2017-10-06T02:46:10.086Z,960.98
2017-10-06T02:46:50.671Z,961
2017-10-06T02:47:38.101Z,960.98
2017-10-06T02:48:18.677Z,960.96
2017-10-06T02:48:59.237Z,961
2017-10-06T02:49:39.816Z,960.99
2017-10-06T02:50:20.398Z,960.96
2017-10-06T02:51:15.488Z,960.96
2017-10-06T02:51:56.052Z,960.97
2017-10-06T02:52:36.623Z,960.95
2017-10-06T02:53:17.209Z,960.95
2017-10-06T02:53:57.780Z,960.95
2017-10-06T02:54:38.357Z,960.89
2017-10-06T02:55:18.944Z,960.9
2017-10-06T02:55:59.521Z,960.95
2017-10-06T02:56:40.104Z,960.92
2017-10-06T02:57:20.682Z,960.92
2017-10-06T02:58:01.261Z,960.92
2017-10-06T02:58:41.835Z,960.89
2017-10-06T02:59:22.417Z,960.89
2017-10-06T03:00:02.999Z,960.86
2017-10-06T03:00:43.578Z,960.88
2017-10-06T03:01:24.157Z,960.9
2017-10-06T03:02:04.725Z,960.91
2017-10-06T03:02:45.296Z,960.92
2017-10-06T03:03:25.880Z,960.92
2017-10-06T03:04:06.458Z,960.9
2017-10-06T03:04:47.043Z,960.91
2017-10-06T03:05:27.612Z,960.92
2017-10-06T03:06:08.188Z,960.93
2017-10-06T03:06:48.769Z,960.94
2017-10-06T03:07:29.334Z,960.96
2017-10-06T03:08:09.926Z,960.94
2017-10-06T03:08:50.506Z,960.91
2017-10-06T03:09:31.075Z,960.9
2017-10-06T03:10:11.657Z,960.89
2017-10-06T03:10:52.229Z,960.86
2017-10-06T03:11:32.804Z,960.83
2017-10-06T03:12:13.375Z,960.83
2017-10-06T03:12:56.706Z,960.83
2017-10-06T03:13:37.279Z,960.81
2017-10-06T03:14:17.872Z,960.76
2017-10-06T03:14:58.425Z,960.81
2017-10-06T03:15:38.995Z,960.79
2017-10-06T03:16:19.576Z,960.8
2017-10-06T03:17:00.137Z,960.78
2017-10-06T03:17:40.718Z,960.79
2017-10-06T03:18:21.287Z,960.79
2017-10-06T03:19:01.852Z,960.82
2017-10-06T03:19:42.433Z,960.82
2017-10-06T03:20:23.008Z,960.82
2017-10-06T03:21:03.588Z,960.81
2017-10-06T03:21:44.156Z,960.75
2017-10-06T03:22:24.817Z,960.81
2017-10-06T03:23:05.389Z,960.77
2017-10-06T03:23:45.969Z,960.78
2017-10-06T03:24:26.547Z,960.8
2017-10-06T03:25:07.303Z,960.78
2017-10-06T03:25:48.031Z,960.77
2017-10-06T03:26:28.628Z,960.79
2017-10-06T03:27:09.306Z,960.79
2017-10-06T03:27:49.969Z,960.75
2017-10-06T03:28:30.638Z,960.77
2017-10-06T03:29:11.261Z,960.74
2017-10-06T03:29:51.841Z,960.78
2017-10-06T03:30:32.729Z,960.74
2017-10-06T03:31:13.307Z,960.76
2017-10-06T03:31:54.094Z,960.73
2017-10-06T03:32:34.843Z,960.73
2017-10-06T03:33:15.507Z,960.8
2017-10-06T03:33:56.197Z,960.76
2017-10-06T03:34:36.772Z,960.77
2017-10-06T03:35:17.433Z,960.74
2017-10-06T03:35:58.192Z,960.78
2017-10-06T03:36:38.870Z,960.8
2017-10-06T03:37:19.539Z,960.77
2017-10-06T03:38:00.219Z,960.79
2017-10-06T03:38:40.990Z,960.79
2017-10-06T03:39:21.695Z,960.8
2017-10-06T03:40:02.427Z,960.76
2017-10-06T03:40:43.172Z,960.75
2017-10-06T03:41:23.831Z,960.76
2017-10-06T03:42:04.445Z,960.77
2017-10-06T03:42:45.194Z,960.77
2017-10-06T03:43:25.891Z,960.78
2017-10-06T03:44:06.590Z,960.78
2017-10-06T03:44:47.374Z,960.81
2017-10-06T03:45:28.156Z,960.85
2017-10-06T03:46:08.931Z,960.82
2017-10-06T03:46:49.509Z,960.83
2017-10-06T03:47:30.822Z,960.82
2017-10-06T03:48:11.410Z,960.84
2017-10-06T03:48:51.983Z,960.8
2017-10-06T03:49:35.105Z,960.77
2017-10-06T03:50:15.711Z,960.76
2017-10-06T03:50:57.102Z,960.79
2017-10-06T03:51:37.681Z,960.75
2017-10-06T03:52:18.257Z,960.78
2017-10-06T03:52:58.835Z,960.81
2017-10-06T03:53:39.412Z,960.81
2017-10-06T03:54:19.993Z,960.81
2017-10-06T03:55:00.549Z,960.83
2017-10-06T03:55:41.136Z,960.78
2017-10-06T03:56:21.716Z,960.82
2017-10-06T03:57:02.304Z,960.84
2017-10-06T03:57:42.871Z,960.8
2017-10-06T03:58:23.440Z,960.82
2017-10-06T03:59:04.004Z,960.85
2017-10-06T03:59:44.591Z,960.79
2017-10-06T04:00:25.156Z,960.8
2017-10-06T04:01:05.729Z,960.8
2017-10-06T04:01:46.318Z,960.79
2017-10-06T04:02:26.882Z,960.81
2017-10-06T04:03:07.462Z,960.82
2017-10-06T04:03:48.043Z,960.82
2017-10-06T04:04:28.615Z,960.83
2017-10-06T04:05:09.191Z,960.83
2017-10-06T04:05:49.780Z,960.82
2017-10-06T04:06:30.353Z,960.84
2017-10-06T04:08:58.461Z,960.91
2017-10-06T04:09:39.044Z,960.88
2017-10-06T04:10:19.625Z,960.92
2017-10-06T04:11:00.199Z,960.91
2017-10-06T04:11:40.788Z,960.95
2017-10-06T04:12:21.359Z,960.9
2017-10-06T04:13:01.918Z,960.95
2017-10-06T04:13:42.495Z,960.94
2017-10-06T04:14:23.071Z,960.97
2017-10-06T04:15:03.659Z,960.89
2017-10-06T04:15:44.235Z,960.94
2017-10-06T04:16:24.819Z,960.9
2017-10-06T04:17:05.394Z,960.95
2017-10-06T04:17:45.970Z,960.98
2017-10-06T04:18:26.542Z,960.95
2017-10-06T04:19:07.120Z,960.96
2017-10-06T04:19:47.694Z,960.95
2017-10-06T04:20:28.262Z,960.95
2017-10-06T04:21:08.854Z,960.95
2017-10-06T04:21:49.438Z,960.97
2017-10-06T04:22:30.030Z,960.94
2017-10-06T04:23:10.602Z,960.91
2017-10-06T04:23:51.173Z,960.94
2017-10-06T04:24:31.755Z,960.93
2017-10-06T04:25:12.335Z,960.96
2017-10-06T04:25:52.912Z,960.98
2017-10-06T04:26:33.489Z,961
2017-10-06T04:27:14.073Z,960.97
2017-10-06T04:27:54.645Z,960.99
2017-10-06T04:28:35.237Z,961.03
2017-10-06T04:29:15.803Z,961.04
2017-10-06T04:29:56.377Z,961.05
2017-10-06T04:30:36.944Z,961.11
2017-10-06T04:31:20.452Z,961.02
2017-10-06T04:32:01.033Z,961.05
2017-10-06T04:32:41.607Z,961.01
2017-10-06T04:33:22.192Z,961.05
2017-10-06T04:34:02.771Z,961.04
2017-10-06T04:34:43.344Z,961.09
2017-10-06T04:35:23.930Z,961.09
2017-10-06T04:36:04.522Z,961.02
2017-10-06T04:36:45.103Z,961.04
2017-10-06T04:37:40.204Z,961.02
2017-10-06T04:38:20.782Z,961.05
2017-10-06T04:39:01.363Z,960.98
2017-10-06T04:39:41.941Z,960.98
2017-10-06T04:40:22.518Z,960.97
2017-10-06T04:41:03.083Z,960.98
2017-10-06T04:41:43.653Z,961.02
2017-10-06T04:42:24.237Z,961.02
2017-10-06T04:43:04.813Z,961.05
2017-10-06T04:43:45.396Z,961.05
2017-10-06T04:44:25.981Z,961.06
2017-10-06T04:45:06.560Z,961.07
2017-10-06T04:45:47.140Z,961.07
2017-10-06T04:46:27.708Z,961.05
2017-10-06T04:47:08.289Z,961.02
2017-10-06T04:47:48.859Z,960.98
2017-10-06T04:48:29.429Z,961.04
2017-10-06T04:49:10.005Z,961.02
2017-10-06T04:49:50.580Z,961.05
2017-10-06T04:50:31.159Z,961.07
2017-10-06T04:51:11.722Z,961.06
2017-10-06T04:53:29.669Z,961.1
2017-10-06T04:54:10.237Z,961.03
2017-10-06T04:54:50.806Z,961.05
2017-10-06T04:55:31.381Z,961.08
2017-10-06T04:56:11.967Z,961.07
2017-10-06T04:56:52.542Z,961.08
2017-10-06T04:57:33.123Z,961.15
2017-10-06T04:58:14.775Z,961.09
2017-10-06T04:58:55.343Z,961.13
2017-10-06T04:59:35.906Z,961.12
2017-10-06T05:00:16.466Z,961.14
2017-10-06T05:00:57.039Z,961.14
2017-10-06T05:01:37.611Z,961.13
2017-10-06T05:02:18.193Z,961.13
2017-10-06T05:02:58.783Z,961.13
2017-10-06T05:03:39.365Z,961.13
2017-10-06T05:04:19.941Z,961.09
2017-10-06T05:05:00.514Z,961.08
2017-10-06T05:05:41.089Z,961.07
2017-10-06T05:06:21.660Z,961.09
2017-10-06T05:07:02.237Z,961.09
2017-10-06T05:07:42.812Z,961.09
2017-10-06T05:08:23.383Z,961.05
2017-10-06T05:09:03.956Z,961.1
2017-10-06T05:09:44.528Z,961.07
2017-10-06T05:10:25.120Z,961.09
2017-10-06T05:11:05.700Z,961.07
2017-10-06T05:11:46.271Z,961.08
2017-10-06T05:12:26.847Z,961.1
2017-10-06T05:13:07.422Z,961.06
2017-10-06T05:13:47.991Z,961.11
2017-10-06T05:14:28.567Z,961.1
2017-10-06T05:15:09.136Z,961.12
2017-10-06T05:15:49.703Z,961.13
2017-10-06T05:16:30.282Z,961.14
2017-10-06T05:17:10.860Z,961.18
2017-10-06T05:17:51.442Z,961.15
2017-10-06T05:18:32.019Z,961.18
2017-10-06T05:19:12.592Z,961.21
2017-10-06T05:19:53.167Z,961.22
2017-10-06T05:20:33.743Z,961.22
2017-10-06T05:21:14.320Z,961.22
2017-10-06T05:21:54.893Z,961.21
2017-10-06T05:22:35.471Z,961.21
2017-10-06T05:23:16.042Z,961.22
2017-10-06T05:23:56.618Z,961.19
2017-10-06T05:24:37.211Z,961.19
2017-10-06T05:25:17.789Z,961.21
2017-10-06T05:25:58.355Z,961.21
2017-10-06T05:26:53.712Z,961.22
2017-10-06T05:27:34.279Z,961.22
2017-10-06T05:28:14.859Z,961.22
2017-10-06T05:28:55.430Z,961.24
2017-10-06T05:29:36.009Z,961.22
2017-10-06T05:30:16.577Z,961.2
2017-10-06T05:30:57.150Z,961.2
2017-10-06T05:31:37.713Z,961.23
2017-10-06T05:32:18.279Z,961.25
2017-10-06T05:32:58.855Z,961.21
2017-10-06T05:33:39.431Z,961.23
2017-10-06T05:34:20.006Z,961.24
2017-10-06T05:35:00.579Z,961.26
2017-10-06T05:35:41.164Z,961.26
2017-10-06T05:36:21.729Z,961.23
2017-10-06T05:37:02.295Z,961.28
2017-10-06T05:37:42.867Z,961.22
2017-10-06T05:39:43.590Z,961.29
2017-10-06T05:40:24.167Z,961.3
2017-10-06T05:41:04.743Z,961.31
2017-10-06T05:41:45.306Z,961.32
2017-10-06T05:42:25.881Z,961.34
2017-10-06T05:43:06.466Z,961.33
2017-10-06T05:43:47.053Z,961.33
2017-10-06T05:44:27.612Z,961.35
2017-10-06T05:45:08.180Z,961.41
2017-10-06T05:45:48.761Z,961.39
2017-10-06T05:46:29.329Z,961.4
2017-10-06T05:47:09.906Z,961.41
2017-10-06T05:49:07.628Z,961.45
2017-10-06T05:49:48.187Z,961.44
2017-10-06T05:50:28.765Z,961.51
2017-10-06T05:51:09.323Z,961.47
2017-10-06T05:53:22.117Z,961.52
2017-10-06T05:54:02.693Z,961.48
2017-10-06T05:54:43.263Z,961.44
2017-10-06T05:55:23.826Z,961.46
2017-10-06T05:56:04.409Z,961.46
2017-10-06T05:56:44.985Z,961.48
2017-10-06T05:57:25.563Z,961.48
2017-10-06T05:58:06.144Z,961.54
2017-10-06T05:58:46.736Z,961.53
2017-10-06T05:59:27.287Z,961.53
2017-10-06T06:00:07.854Z,961.53
2017-10-06T06:00:48.429Z,961.55
2017-10-06T06:01:28.998Z,961.53
2017-10-06T06:02:09.562Z,961.55
2017-10-06T06:02:50.143Z,961.54
2017-10-06T06:03:45.641Z,961.51
2017-10-06T06:04:26.217Z,961.54
2017-10-06T06:05:06.790Z,961.51
2017-10-06T06:05:47.362Z,961.59
2017-10-06T06:06:27.942Z,961.55
2017-10-06T06:07:08.520Z,961.57
2017-10-06T06:07:49.093Z,961.62
2017-10-06T06:08:29.662Z,961.61
2017-10-06T06:09:10.249Z,961.65
2017-10-06T06:09:50.826Z,961.62
2017-10-06T06:10:31.401Z,961.64
2017-10-06T06:11:11.968Z,961.66
2017-10-06T06:11:52.545Z,961.7
2017-10-06T06:12:33.122Z,961.71
2017-10-06T06:13:13.696Z,961.73
2017-10-06T06:13:54.270Z,961.75
2017-10-06T06:14:34.836Z,961.75
2017-10-06T06:15:15.411Z,961.78
2017-10-06T06:15:55.987Z,961.82
2017-10-06T06:16:36.567Z,961.77
2017-10-06T06:17:17.148Z,961.78
2017-10-06T06:17:57.723Z,961.85
2017-10-06T06:18:38.286Z,961.83
2017-10-06T06:19:18.865Z,961.85
2017-10-06T06:19:59.443Z,961.86
2017-10-06T06:20:40.022Z,961.85
2017-10-06T06:21:20.589Z,961.82
2017-10-06T06:22:01.171Z,961.91
2017-10-06T06:22:41.754Z,961.89
2017-10-06T06:23:22.344Z,961.92
2017-10-06T06:25:40.301Z,961.9
2017-10-06T06:26:20.879Z,961.93
2017-10-06T06:27:01.450Z,961.9
2017-10-06T06:27:42.018Z,961.92
2017-10-06T06:28:22.592Z,961.95
2017-10-06T06:29:03.161Z,961.96
2017-10-06T06:29:43.730Z,961.93
2017-10-06T06:30:24.310Z,961.91
2017-10-06T06:31:04.872Z,961.92
2017-10-06T06:31:45.446Z,961.92
2017-10-06T06:32:26.020Z,961.9
2017-10-06T06:33:06.590Z,961.91
2017-10-06T06:33:47.160Z,961.9
2017-10-06T06:34:27.732Z,961.89
2017-10-06T06:35:08.304Z,961.92
2017-10-06T06:35:48.871Z,961.93
2017-10-06T06:36:29.459Z,961.91
2017-10-06T06:37:10.029Z,961.95
2017-10-06T06:37:50.602Z,961.94
2017-10-06T06:38:31.171Z,961.95
2017-10-06T06:39:11.735Z,961.97
2017-10-06T06:39:52.302Z,961.94
2017-10-06T06:40:32.870Z,961.96
2017-10-06T06:41:13.456Z,961.96
2017-10-06T06:41:54.031Z,961.97
2017-10-06T06:42:34.626Z,961.99
2017-10-06T06:43:15.203Z,961.96
2017-10-06T06:43:55.780Z,961.96
2017-10-06T06:44:36.364Z,961.97
2017-10-06T06:45:16.950Z,961.97
2017-10-06T06:45:57.540Z,962.01
2017-10-06T06:46:38.115Z,962
2017-10-06T06:47:18.706Z,962
2017-10-06T06:47:59.292Z,962
2017-10-06T06:48:39.863Z,961.95
2017-10-06T06:49:35.271Z,961.97
2017-10-06T06:50:15.845Z,961.97
2017-10-06T06:50:56.412Z,961.99
2017-10-06T06:51:37.003Z,961.99
2017-10-06T06:52:17.582Z,961.99
2017-10-06T06:52:58.165Z,962.01
2017-10-06T06:53:38.744Z,961.98
2017-10-06T06:54:19.323Z,962.01
2017-10-06T06:54:59.894Z,961.97
2017-10-06T06:55:40.467Z,961.95
2017-10-06T06:56:21.039Z,961.94
2017-10-06T06:57:01.618Z,961.98
2017-10-06T06:57:42.197Z,962.01
2017-10-06T06:58:22.770Z,961.97
2017-10-06T06:59:03.341Z,961.98
2017-10-06T06:59:43.923Z,961.95
2017-10-06T07:00:24.492Z,961.95
2017-10-06T07:01:05.062Z,961.95
2017-10-06T07:01:45.648Z,962
2017-10-06T07:02:26.223Z,961.96
2017-10-06T07:03:06.789Z,961.96
2017-10-06T07:03:47.359Z,961.94
2017-10-06T07:04:27.935Z,961.95
2017-10-06T07:05:08.532Z,961.92
2017-10-06T07:05:49.085Z,961.92
2017-10-06T07:06:29.670Z,961.95
2017-10-06T07:07:10.244Z,961.92
2017-10-06T07:07:50.821Z,961.97
2017-10-06T07:08:31.425Z,961.99
2017-10-06T07:09:12.026Z,961.98
2017-10-06T07:09:52.599Z,962.01
2017-10-06T07:10:33.174Z,961.98
2017-10-06T07:11:13.760Z,962.02
2017-10-06T07:11:54.342Z,961.99
2017-10-06T07:12:34.918Z,962.01
2017-10-06T07:13:15.496Z,962.02
2017-10-06T07:13:56.061Z,961.95
2017-10-06T07:14:36.634Z,962.01
2017-10-06T07:15:17.204Z,962.06
2017-10-06T07:15:57.775Z,962.03
2017-10-06T07:16:38.353Z,962.04
2017-10-06T07:17:18.935Z,962.09
2017-10-06T07:17:59.510Z,962.03
2017-10-06T07:18:40.085Z,962.06
2017-10-06T07:19:20.662Z,962.04
2017-10-06T07:20:01.246Z,962.08
2017-10-06T07:20:41.822Z,962.1
2017-10-06T07:21:22.397Z,961.98
2017-10-06T07:22:02.993Z,962.06
2017-10-06T07:22:43.570Z,962.03
2017-10-06T07:23:24.144Z,962.05
2017-10-06T07:24:04.729Z,962.05
2017-10-06T07:24:45.302Z,962.05
2017-10-06T07:25:25.877Z,962.03
2017-10-06T07:26:06.454Z,962.09
2017-10-06T07:26:47.030Z,962.04
2017-10-06T07:27:27.615Z,962.03
2017-10-06T07:28:08.182Z,962.02
2017-10-06T07:28:48.760Z,962.13
2017-10-06T07:31:06.710Z,962.11
2017-10-06T07:31:47.286Z,962.05
2017-10-06T07:32:27.859Z,962.07
2017-10-06T07:33:08.430Z,962.12
2017-10-06T07:33:49.001Z,962.07
2017-10-06T07:34:29.577Z,962.02
2017-10-06T07:35:10.138Z,962.05
2017-10-06T07:36:05.725Z,962.09
2017-10-06T07:36:46.307Z,962.09
2017-10-06T07:37:26.897Z,962.04
2017-10-06T07:38:07.475Z,962.1
2017-10-06T07:38:48.047Z,962.05
2017-10-06T07:39:28.625Z,962.1
2017-10-06T07:40:09.195Z,962.08
2017-10-06T07:40:49.774Z,962.1
2017-10-06T07:43:07.711Z,962.06
2017-10-06T07:43:48.282Z,962.09
2017-10-06T07:44:28.855Z,962.13
2017-10-06T07:45:09.432Z,962.14
2017-10-06T07:45:50.010Z,962.12
2017-10-06T07:46:30.588Z,962.18
2017-10-06T07:47:11.207Z,962.15
2017-10-06T07:47:51.780Z,962.12
2017-10-06T07:48:32.360Z,962.14
2017-10-06T07:49:12.933Z,962.07
2017-10-06T07:49:53.502Z,962.1
2017-10-06T07:50:34.074Z,962.09
2017-10-06T07:51:14.653Z,962.08
2017-10-06T07:51:55.229Z,962.11
2017-10-06T07:52:35.809Z,962.19
2017-10-06T07:53:16.381Z,962.21
2017-10-06T07:53:56.959Z,962.15
2017-10-06T07:54:37.528Z,962.18
2017-10-06T07:55:18.107Z,962.21
2017-10-06T07:56:13.458Z,962.23
2017-10-06T07:56:54.039Z,962.26
2017-10-06T07:57:34.616Z,962.23
2017-10-06T07:58:15.182Z,962.26
2017-10-06T07:58:55.754Z,962.24
2017-10-06T07:59:36.320Z,962.2
2017-10-06T08:00:16.900Z,962.29
2017-10-06T08:00:57.474Z,962.23
2017-10-06T08:01:38.037Z,962.26
2017-10-06T08:02:18.637Z,962.23
2017-10-06T08:02:59.207Z,962.26
2017-10-06T08:03:39.785Z,962.3
2017-10-06T08:04:20.366Z,962.27
2017-10-06T08:05:00.936Z,962.28
2017-10-06T08:05:41.508Z,962.29
2017-10-06T08:06:22.084Z,962.39
2017-10-06T08:07:02.662Z,962.55
2017-10-06T08:07:43.241Z,962.44
2017-10-06T08:08:23.839Z,962.48
2017-10-06T08:09:04.413Z,962.52
2017-10-06T08:09:44.975Z,962.44
2017-10-06T08:10:25.553Z,962.42
2017-10-06T08:11:06.127Z,962.31
2017-10-06T08:11:46.700Z,962.26
2017-10-06T08:12:27.280Z,962.28
2017-10-06T08:13:07.859Z,962.29
2017-10-06T08:13:48.441Z,962.28
2017-10-06T08:14:29.017Z,962.37
2017-10-06T08:15:09.593Z,962.42
2017-10-06T08:15:50.177Z,962.34
2017-10-06T08:16:30.754Z,962.29
2017-10-06T08:17:11.334Z,962.29
2017-10-06T08:17:51.918Z,962.24
2017-10-06T08:18:32.510Z,962.34
2017-10-06T08:19:13.089Z,962.3
2017-10-06T08:19:53.663Z,962.32
2017-10-06T08:20:34.237Z,962.27
2017-10-06T08:21:14.809Z,962.33
2017-10-06T08:21:55.386Z,962.3
2017-10-06T08:22:35.976Z,962.3
2017-10-06T08:23:16.555Z,962.31
2017-10-06T08:23:57.134Z,962.31
2017-10-06T08:24:37.716Z,962.28
2017-10-06T08:25:18.280Z,962.32
2017-10-06T08:25:58.914Z,962.24
2017-10-06T08:26:39.496Z,962.34
2017-10-06T08:27:20.071Z,962.27
2017-10-06T08:28:00.637Z,962.32
2017-10-06T08:28:41.211Z,962.27
2017-10-06T08:29:21.797Z,962.27
2017-10-06T08:30:02.374Z,962.28
2017-10-06T08:30:42.948Z,962.28
2017-10-06T08:31:23.516Z,962.24
2017-10-06T08:32:04.105Z,962.29
2017-10-06T08:32:44.672Z,962.27
2017-10-06T08:33:25.263Z,962.25
2017-10-06T08:34:05.823Z,962.23
2017-10-06T08:34:46.399Z,962.28
2017-10-06T08:35:26.984Z,962.26
2017-10-06T08:36:07.566Z,962.42
2017-10-06T08:36:48.151Z,962.42
2017-10-06T08:37:28.719Z,962.51
2017-10-06T08:38:09.298Z,962.52
2017-10-06T08:38:49.870Z,962.39
2017-10-06T08:39:30.464Z,962.39
2017-10-06T08:40:11.049Z,962.22
2017-10-06T08:40:52.479Z,962.45
2017-10-06T08:41:33.056Z,962.45
2017-10-06T08:42:13.642Z,962.53
2017-10-06T08:42:54.220Z,962.52
2017-10-06T08:44:46.869Z,962.55
2017-10-06T08:45:27.437Z,962.42
2017-10-06T08:46:08.039Z,962.48